createdAt,value
2022-07-30T00:02:03.557Z,3.88
2022-07-30T00:04:32.383Z,3.25
2022-07-30T00:07:00.461Z,3.60
2022-07-30T00:09:28.401Z,3.15
2022-07-30T00:11:56.096Z,2.90
2022-07-30T00:14:23.828Z,3.05
2022-07-30T00:16:51.636Z,2.60
2022-07-30T00:19:21.730Z,3.03
2022-07-30T00:21:51.069Z,2.95
2022-07-30T00:24:18.806Z,2.90
2022-07-30T00:26:46.477Z,2.85
2022-07-30T00:29:14.306Z,2.85
2022-07-30T00:31:42.104Z,2.97
2022-07-30T00:34:09.872Z,2.50
2022-07-30T00:36:39.668Z,2.43
2022-07-30T00:39:07.525Z,2.70
2022-07-30T00:41:37.879Z,3.20
2022-07-30T00:44:05.974Z,2.27
2022-07-30T00:46:33.745Z,2.77
2022-07-30T00:49:01.456Z,2.53
2022-07-30T00:51:29.203Z,3.10
2022-07-30T00:53:58.261Z,3.30
2022-07-30T00:56:25.948Z,3.00
2022-07-30T00:58:53.684Z,2.93
2022-07-30T01:01:21.799Z,2.80
2022-07-30T01:03:49.625Z,3.07
2022-07-30T01:06:17.370Z,2.87
2022-07-30T01:08:45.055Z,3.03
2022-07-30T01:11:14.379Z,3.00
2022-07-30T01:13:42.450Z,3.20
2022-07-30T01:16:10.919Z,3.60
2022-07-30T01:18:58.486Z,3.37
2022-07-30T01:21:33.724Z,3.20
2022-07-30T01:24:28.439Z,3.13
2022-07-30T01:26:59.070Z,3.00
2022-07-30T01:29:30.146Z,2.80
2022-07-30T01:32:00.612Z,2.80
2022-07-30T01:34:30.749Z,3.00
2022-07-30T01:37:00.574Z,2.70
2022-07-30T01:39:30.219Z,2.50
2022-07-30T01:42:00.392Z,2.73
2022-07-30T01:44:28.916Z,3.30
2022-07-30T01:46:57.727Z,2.70
2022-07-30T01:49:28.435Z,2.80
2022-07-30T01:51:57.686Z,2.97
2022-07-30T01:54:28.348Z,2.80
2022-07-30T01:56:58.242Z,2.30
2022-07-30T01:59:29.249Z,2.73
2022-07-30T02:01:57.201Z,2.53
2022-07-30T02:04:25.015Z,2.47
2022-07-30T02:07:00.951Z,2.50
2022-07-30T02:09:32.939Z,2.90
2022-07-30T02:12:20.289Z,2.90
2022-07-30T02:14:54.683Z,2.20
2022-07-30T02:17:30.249Z,2.87
2022-07-30T02:20:09.328Z,3.00
2022-07-30T02:22:40.674Z,3.13
2022-07-30T02:25:11.431Z,2.80
2022-07-30T02:27:42.650Z,3.30
2022-07-30T02:30:13.398Z,2.60
2022-07-30T02:32:44.830Z,3.10
2022-07-30T02:35:16.850Z,2.97
2022-07-30T02:37:46.349Z,3.23
2022-07-30T02:40:16.874Z,3.23
2022-07-30T02:42:48.124Z,3.10
2022-07-30T02:45:19.066Z,3.60
2022-07-30T02:47:49.927Z,3.63
2022-07-30T02:50:20.076Z,3.20
2022-07-30T02:52:49.188Z,3.13
2022-07-30T02:55:17.964Z,3.83
2022-07-30T02:57:48.386Z,3.70
2022-07-30T03:00:16.882Z,4.67
2022-07-30T03:02:47.199Z,3.60
2022-07-30T03:05:17.083Z,3.70
2022-07-30T03:07:45.438Z,4.60
2022-07-30T03:10:14.687Z,4.10
2022-07-30T03:12:46.115Z,3.90
2022-07-30T03:15:15.232Z,4.20
2022-07-30T03:17:47.647Z,4.10
2022-07-30T03:20:20.084Z,4.10
2022-07-30T03:22:52.274Z,4.17
2022-07-30T03:25:24.575Z,4.17
2022-07-30T03:27:53.312Z,4.93
2022-07-30T03:30:21.591Z,4.33
2022-07-30T03:32:51.786Z,4.73
2022-07-30T03:35:21.808Z,4.83
2022-07-30T03:37:50.681Z,4.63
2022-07-30T03:40:19.614Z,4.40
2022-07-30T03:42:48.020Z,4.90
2022-07-30T03:45:16.854Z,5.07
2022-07-30T03:47:47.368Z,5.00
2022-07-30T03:50:16.621Z,4.63
2022-07-30T03:52:44.904Z,4.30
2022-07-30T03:55:13.824Z,4.07
2022-07-30T03:57:41.666Z,4.57
2022-07-30T04:00:14.870Z,4.57
2022-07-30T04:02:43.583Z,4.77
2022-07-30T04:05:13.191Z,4.43
2022-07-30T04:07:44.827Z,4.83
2022-07-30T04:10:13.352Z,4.40
2022-07-30T04:12:41.129Z,4.10
2022-07-30T04:16:34.312Z,3.63
2022-07-30T04:18:02.565Z,4.30
2022-07-30T04:20:33.978Z,3.83
2022-07-30T04:23:03.948Z,4.00
2022-07-30T04:25:32.869Z,4.10
2022-07-30T04:28:03.835Z,3.83
2022-07-30T04:30:33.278Z,3.97
2022-07-30T04:33:01.147Z,4.03
2022-07-30T04:35:50.827Z,4.30
2022-07-30T04:38:18.779Z,4.53
2022-07-30T04:40:47.091Z,3.83
2022-07-30T04:43:15.197Z,4.33
2022-07-30T04:45:43.095Z,4.50
2022-07-30T04:48:10.783Z,4.03
2022-07-30T04:50:43.244Z,4.73
2022-07-30T04:53:12.246Z,4.60
2022-07-30T04:55:43.377Z,4.60
2022-07-30T04:58:13.238Z,4.30
2022-07-30T05:00:44.191Z,4.47
2022-07-30T05:03:14.192Z,5.00
2022-07-30T05:05:42.351Z,4.80
2022-07-30T05:08:10.478Z,4.10
2022-07-30T05:10:39.495Z,4.40
2022-07-30T05:13:14.231Z,4.33
2022-07-30T05:15:42.300Z,4.50
2022-07-30T05:18:10.612Z,4.00
2022-07-30T05:20:38.571Z,4.43
2022-07-30T05:23:06.898Z,4.77
2022-07-30T05:25:34.645Z,4.03
2022-07-30T05:28:02.346Z,4.60
2022-07-30T05:30:31.331Z,5.27
2022-07-30T05:32:58.954Z,4.00
2022-07-30T05:35:31.282Z,4.27
2022-07-30T05:38:00.167Z,3.90
2022-07-30T05:40:28.048Z,5.00
2022-07-30T05:42:55.803Z,5.17
2022-07-30T05:45:23.506Z,4.80
2022-07-30T05:47:52.626Z,4.60
2022-07-30T05:50:20.409Z,4.90
2022-07-30T05:52:48.103Z,4.57
2022-07-30T05:55:15.993Z,4.40
2022-07-30T05:57:43.696Z,4.70
2022-07-30T06:00:13.481Z,4.60
2022-07-30T06:02:41.915Z,4.20
2022-07-30T06:05:11.179Z,3.80
2022-07-30T06:07:38.855Z,4.03
2022-07-30T06:10:07.452Z,6.63
2022-07-30T06:12:35.186Z,5.23
2022-07-30T06:15:02.880Z,4.87
2022-07-30T06:17:30.570Z,4.60
2022-07-30T06:20:00.507Z,3.97
2022-07-30T06:22:29.556Z,4.80
2022-07-30T06:24:57.268Z,5.30
2022-07-30T06:27:31.384Z,4.20
2022-07-30T06:30:00.232Z,3.87
2022-07-30T06:32:28.517Z,4.80
2022-07-30T06:35:03.932Z,4.80
2022-07-30T06:37:58.728Z,4.50
2022-07-30T06:40:21.468Z,4.30
2022-07-30T06:42:49.204Z,4.75
2022-07-30T06:45:16.980Z,4.28
2022-07-30T06:47:44.724Z,4.20
2022-07-30T06:50:12.803Z,4.90
2022-07-30T06:52:42.056Z,4.45
2022-07-30T06:55:09.934Z,4.65
2022-07-30T06:57:42.365Z,4.93
2022-07-30T07:00:11.464Z,4.93
2022-07-30T07:02:39.302Z,4.40
2022-07-30T07:05:08.083Z,4.78
2022-07-30T07:07:41.887Z,4.50
2022-07-30T07:10:12.529Z,4.22
2022-07-30T07:12:40.200Z,4.53
2022-07-30T07:15:09.744Z,8.02
2022-07-30T07:17:37.514Z,5.00
2022-07-30T07:20:06.239Z,4.47
2022-07-30T07:22:33.984Z,4.60
2022-07-30T07:25:01.816Z,4.70
2022-07-30T07:27:30.886Z,5.45
2022-07-30T07:30:01.520Z,5.43
2022-07-30T07:32:34.207Z,5.53
2022-07-30T07:35:02.199Z,4.70
2022-07-30T07:37:29.989Z,5.53
2022-07-30T07:39:58.186Z,5.32
2022-07-30T07:42:26.911Z,5.43
2022-07-30T07:44:56.022Z,5.47
2022-07-30T07:47:23.824Z,4.90
2022-07-30T07:49:51.572Z,5.05
2022-07-30T07:52:19.293Z,5.45
2022-07-30T07:54:47.002Z,5.45
2022-07-30T07:57:15.483Z,4.78
2022-07-30T07:59:43.260Z,4.35
2022-07-30T08:02:12.406Z,4.15
2022-07-30T08:04:40.292Z,5.00
2022-07-30T08:07:08.058Z,4.43
2022-07-30T08:09:42.017Z,4.47
2022-07-30T08:12:12.663Z,5.00
2022-07-30T08:14:40.383Z,4.57
2022-07-30T08:17:08.593Z,5.88
2022-07-30T08:19:38.012Z,5.55
2022-07-30T08:22:05.767Z,4.57
2022-07-30T08:24:33.674Z,5.22
2022-07-30T08:27:01.608Z,3.70
2022-07-30T08:29:30.135Z,5.10
2022-07-30T08:31:57.922Z,4.53
2022-07-30T08:34:25.974Z,5.35
2022-07-30T08:36:55.193Z,3.75
2022-07-30T08:39:22.951Z,4.00
2022-07-30T08:41:50.880Z,4.63
2022-07-30T08:44:21.777Z,4.68
2022-07-30T08:46:52.392Z,4.85
2022-07-30T08:49:20.363Z,4.63
2022-07-30T08:51:48.522Z,4.32
2022-07-30T08:54:17.860Z,5.35
2022-07-30T08:56:45.771Z,4.25
2022-07-30T08:59:14.251Z,5.90
2022-07-30T09:01:41.961Z,4.88
2022-07-30T09:04:09.783Z,3.80
2022-07-30T09:06:38.038Z,3.80
2022-07-30T09:09:05.691Z,2.90
2022-07-30T09:11:36.813Z,3.13
2022-07-30T09:14:11.964Z,3.25
2022-07-30T09:16:40.337Z,3.15
2022-07-30T09:19:16.406Z,3.60
2022-07-30T09:21:55.477Z,3.22
2022-07-30T09:24:23.296Z,3.10
2022-07-30T09:26:57.427Z,2.90
2022-07-30T09:29:26.924Z,2.95
2022-07-30T09:31:59.092Z,2.42
2022-07-30T09:34:29.427Z,3.17
2022-07-30T09:36:58.811Z,2.90
2022-07-30T09:39:31.401Z,2.33
2022-07-30T09:42:32.098Z,2.80
2022-07-30T09:45:06.869Z,2.50
2022-07-30T09:47:35.831Z,2.55
2022-07-30T09:50:07.014Z,2.38
2022-07-30T09:52:35.490Z,2.35
2022-07-30T09:55:03.607Z,2.17
2022-07-30T09:57:32.876Z,2.55
2022-07-30T10:00:18.906Z,2.30
2022-07-30T10:02:51.735Z,2.20
2022-07-30T10:05:21.303Z,2.47
2022-07-30T10:07:52.118Z,2.10
2022-07-30T10:10:25.246Z,1.83
2022-07-30T10:12:58.135Z,2.03
2022-07-30T10:15:28.945Z,3.13
2022-07-30T10:17:57.773Z,2.53
2022-07-30T10:20:26.165Z,2.40
2022-07-30T10:22:54.201Z,1.95
2022-07-30T10:25:27.661Z,2.13
2022-07-30T10:27:57.947Z,2.40
2022-07-30T10:30:27.814Z,2.17
2022-07-30T10:32:58.223Z,2.25
2022-07-30T10:35:34.523Z,2.17
2022-07-30T10:38:13.777Z,1.77
2022-07-30T10:40:49.442Z,2.47
2022-07-30T10:43:56.485Z,2.40
2022-07-30T10:46:38.447Z,2.20
2022-07-30T10:49:11.763Z,2.10
2022-07-30T10:51:48.426Z,2.30
2022-07-30T10:54:39.778Z,2.17
2022-07-30T10:57:14.689Z,2.15
2022-07-30T11:00:15.397Z,2.55
2022-07-30T11:03:40.448Z,2.45
2022-07-30T11:06:29.333Z,2.63
2022-07-30T11:08:58.135Z,2.42
2022-07-30T11:12:02.140Z,2.28
2022-07-30T11:15:07.212Z,1.92
2022-07-30T11:18:02.919Z,2.25
2022-07-30T11:20:32.970Z,2.20
2022-07-30T11:23:14.073Z,1.70
2022-07-30T11:25:52.017Z,2.25
2022-07-30T11:28:40.108Z,2.15
2022-07-30T11:31:30.579Z,1.80
2022-07-30T11:34:27.915Z,2.33
2022-07-30T11:37:18.214Z,2.17
2022-07-30T11:40:13.092Z,2.03
2022-07-30T11:42:43.160Z,2.00
2022-07-30T11:45:27.221Z,2.00
2022-07-30T11:47:57.757Z,1.80
2022-07-30T11:50:29.081Z,1.83
2022-07-30T11:52:58.575Z,1.85
2022-07-30T11:55:28.881Z,1.65
2022-07-30T11:57:56.729Z,1.75
2022-07-30T12:00:25.226Z,1.58
2022-07-30T12:02:53.411Z,1.98
2022-07-30T12:05:27.571Z,1.60
2022-07-30T12:08:00.117Z,2.17
2022-07-30T12:10:27.988Z,2.30
2022-07-30T12:13:08.639Z,1.85
2022-07-30T12:15:38.434Z,1.95
2022-07-30T12:20:59.349Z,1.92
2022-07-30T12:23:28.243Z,1.73
2022-07-30T12:25:56.914Z,2.00
2022-07-30T12:28:27.694Z,1.80
2022-07-30T12:30:56.887Z,1.70
2022-07-30T12:33:25.448Z,1.55
2022-07-30T12:35:54.859Z,1.65
2022-07-30T12:38:25.497Z,1.75
2022-07-30T12:40:58.876Z,1.90
2022-07-30T12:43:47.643Z,1.92
2022-07-30T12:46:17.783Z,2.50
2022-07-30T12:48:53.641Z,2.28
2022-07-30T12:51:24.142Z,1.50
2022-07-30T12:53:54.047Z,1.65
2022-07-30T12:56:24.654Z,1.98
2022-07-30T12:58:52.969Z,2.25
2022-07-30T13:01:39.681Z,2.08
2022-07-30T13:04:07.483Z,2.10
2022-07-30T13:06:35.319Z,1.60
2022-07-30T13:09:05.470Z,2.10
2022-07-30T13:11:40.091Z,2.13
2022-07-30T13:14:08.165Z,1.63
2022-07-30T13:16:37.619Z,1.83
2022-07-30T13:19:05.804Z,1.55
2022-07-30T13:21:33.783Z,1.10
2022-07-30T13:24:02.245Z,1.10
2022-07-30T13:26:31.581Z,1.00
2022-07-30T13:29:01.857Z,1.80
2022-07-30T13:31:42.635Z,1.30
2022-07-30T13:34:11.922Z,1.50
2022-07-30T13:36:39.634Z,1.02
2022-07-30T13:39:07.427Z,1.05
2022-07-30T13:41:36.981Z,1.15
2022-07-30T13:44:05.581Z,1.15
2022-07-30T13:46:33.441Z,1.08
2022-07-30T13:49:01.325Z,1.42
2022-07-30T13:51:29.102Z,1.20
2022-07-30T13:53:56.883Z,1.15
2022-07-30T13:56:24.643Z,0.80
2022-07-30T13:58:53.650Z,0.80
2022-07-30T14:01:21.491Z,0.85
2022-07-30T14:03:50.887Z,1.00
2022-07-30T14:06:18.932Z,1.00
2022-07-30T14:08:46.753Z,1.25
2022-07-30T14:11:15.575Z,0.90
2022-07-30T14:13:43.455Z,1.10
2022-07-30T14:16:35.177Z,1.10
2022-07-30T14:19:01.887Z,1.05
2022-07-30T14:21:29.605Z,1.10
2022-07-30T14:23:57.917Z,0.90
2022-07-30T14:26:25.838Z,0.90
2022-07-30T14:28:57.893Z,1.23
2022-07-30T14:31:27.000Z,1.00
2022-07-30T14:33:54.795Z,1.30
2022-07-30T14:36:23.283Z,1.35
2022-07-30T14:38:55.120Z,2.10
2022-07-30T14:41:24.724Z,1.60
2022-07-30T14:43:52.496Z,1.70
2022-07-30T14:46:20.536Z,1.52
2022-07-30T14:48:49.944Z,1.50
2022-07-30T14:51:21.924Z,1.30
2022-07-30T14:53:53.780Z,1.50
2022-07-30T14:56:23.973Z,1.50
2022-07-30T14:58:53.055Z,1.58
2022-07-30T15:01:20.802Z,1.30
2022-07-30T15:03:50.452Z,1.70
2022-07-30T15:06:18.147Z,1.40
2022-07-30T15:08:46.605Z,1.67
2022-07-30T15:11:14.534Z,1.90
2022-07-30T15:13:50.640Z,1.50
2022-07-30T15:16:18.915Z,1.27
2022-07-30T15:18:46.794Z,1.40
2022-07-30T15:21:15.818Z,1.20
2022-07-30T15:23:43.628Z,1.63
2022-07-30T15:26:11.557Z,1.73
2022-07-30T15:28:39.652Z,1.38
2022-07-30T15:31:07.342Z,1.90
2022-07-30T15:33:37.188Z,2.40
2022-07-30T15:36:05.504Z,2.22
2022-07-30T15:38:34.594Z,1.48
2022-07-30T15:41:02.263Z,1.75
2022-07-30T15:43:30.153Z,1.95
2022-07-30T15:45:58.034Z,1.50
2022-07-30T15:48:27.302Z,2.08
2022-07-30T15:51:00.675Z,1.40
2022-07-30T15:53:28.528Z,1.50
2022-07-30T15:55:58.005Z,1.60
2022-07-30T15:58:26.040Z,1.65
2022-07-30T16:00:53.818Z,1.70
2022-07-30T16:03:21.765Z,1.60
2022-07-30T16:05:51.638Z,1.80
2022-07-30T16:08:20.860Z,1.75
2022-07-30T16:10:51.837Z,1.38
2022-07-30T16:13:21.075Z,1.83
2022-07-30T16:15:48.800Z,1.90
2022-07-30T16:18:16.515Z,2.22
2022-07-30T16:20:44.279Z,1.75
2022-07-30T16:23:14.201Z,1.17
2022-07-30T16:25:44.741Z,1.48
2022-07-30T16:28:12.574Z,1.30
2022-07-30T16:30:51.477Z,1.40
2022-07-30T16:33:20.364Z,1.35
2022-07-30T16:35:49.399Z,1.50
2022-07-30T16:38:19.247Z,1.30
2022-07-30T16:40:47.010Z,1.80
2022-07-30T16:43:15.649Z,1.52
2022-07-30T16:45:48.026Z,2.20
2022-07-30T16:48:15.753Z,2.05
2022-07-30T16:50:43.953Z,2.00
2022-07-30T16:53:14.372Z,1.92
2022-07-30T16:55:42.583Z,2.20
2022-07-30T16:58:10.323Z,2.17
2022-07-30T17:00:38.147Z,1.80
2022-07-30T17:03:07.260Z,1.88
2022-07-30T17:05:35.025Z,2.10
2022-07-30T17:08:05.736Z,2.75
2022-07-30T17:10:37.256Z,3.08
2022-07-30T17:13:04.998Z,2.58
2022-07-30T17:15:33.371Z,1.70
2022-07-30T17:18:01.368Z,1.90
2022-07-30T17:20:30.677Z,1.42
2022-07-30T17:22:58.725Z,1.90
2022-07-30T17:25:28.199Z,2.03
2022-07-30T17:27:55.873Z,1.75
2022-07-30T17:30:24.312Z,2.22
2022-07-30T17:32:53.514Z,1.85
2022-07-30T17:35:21.530Z,1.50
2022-07-30T17:37:50.640Z,1.40
2022-07-30T17:40:28.902Z,1.77
2022-07-30T17:43:03.381Z,1.70
2022-07-30T17:45:31.641Z,2.17
2022-07-30T17:48:01.320Z,1.63
2022-07-30T17:50:29.135Z,1.73
2022-07-30T17:52:58.318Z,1.45
2022-07-30T17:55:27.874Z,1.30
2022-07-30T17:57:55.677Z,1.70
2022-07-30T18:00:23.787Z,1.42
2022-07-30T18:02:51.443Z,1.95
2022-07-30T18:05:19.669Z,2.65
2022-07-30T18:07:47.411Z,2.75
2022-07-30T18:10:16.476Z,1.95
2022-07-30T18:12:49.208Z,2.10
2022-07-30T18:15:17.707Z,2.30
2022-07-30T18:17:45.500Z,2.20
2022-07-30T18:20:13.789Z,2.25
2022-07-30T18:22:41.864Z,1.70
2022-07-30T18:25:12.328Z,1.92
2022-07-30T18:27:48.652Z,2.17
2022-07-30T18:30:16.934Z,2.10
2022-07-30T18:32:44.656Z,1.45
2022-07-30T18:35:14.767Z,1.90
2022-07-30T18:37:43.875Z,1.60
2022-07-30T18:40:13.186Z,1.85
2022-07-30T18:42:41.273Z,2.95
2022-07-30T18:45:13.902Z,3.22
2022-07-30T18:47:41.997Z,2.30
2022-07-30T18:50:11.238Z,2.50
2022-07-30T18:52:39.509Z,2.92
2022-07-30T18:55:08.347Z,2.10
2022-07-30T18:57:36.060Z,1.60
2022-07-30T19:00:05.763Z,1.65
2022-07-30T19:02:35.038Z,1.58
2022-07-30T19:05:02.862Z,1.88
2022-07-30T19:07:30.607Z,1.90
2022-07-30T19:10:18.974Z,2.15
2022-07-30T19:12:46.708Z,2.00
2022-07-30T19:15:14.432Z,1.65
2022-07-30T19:17:46.695Z,2.38
2022-07-30T19:20:14.649Z,1.98
2022-07-30T19:22:42.442Z,2.10
2022-07-30T19:25:11.151Z,4.18
2022-07-30T19:27:38.888Z,2.92
2022-07-30T19:30:08.008Z,2.20
2022-07-30T19:32:35.704Z,2.13
2022-07-30T19:35:05.433Z,1.98
2022-07-30T19:37:41.031Z,2.13
2022-07-30T19:40:09.637Z,1.40
2022-07-30T19:42:41.277Z,1.70
2022-07-30T19:45:12.126Z,2.10
2022-07-30T19:47:42.628Z,3.10
2022-07-30T19:50:12.933Z,4.47
2022-07-30T19:52:51.050Z,4.07
2022-07-30T19:55:35.093Z,2.92
2022-07-30T19:58:04.770Z,3.05
2022-07-30T20:00:44.633Z,3.83
2022-07-30T20:06:08.590Z,3.13
2022-07-30T20:08:44.852Z,3.78
2022-07-30T20:11:20.946Z,2.95
2022-07-30T20:13:52.069Z,2.47
2022-07-30T20:16:20.451Z,2.63
2022-07-30T20:18:49.701Z,2.00
2022-07-30T20:21:56.415Z,2.47
2022-07-30T20:24:11.394Z,2.30
2022-07-30T20:26:39.118Z,2.92
2022-07-30T20:29:09.232Z,2.65
2022-07-30T20:31:49.793Z,2.97
2022-07-30T20:34:35.614Z,2.80
2022-07-30T20:37:15.850Z,2.70
2022-07-30T20:39:50.374Z,2.45
2022-07-30T20:42:18.629Z,2.88
2022-07-30T20:44:49.418Z,2.70
2022-07-30T20:47:34.243Z,2.75
2022-07-30T20:50:06.047Z,2.70
2022-07-30T20:52:40.246Z,3.20
2022-07-30T20:55:09.676Z,3.03
2022-07-30T20:57:57.004Z,2.85
2022-07-30T21:00:28.991Z,3.60
2022-07-30T21:02:56.631Z,2.78
2022-07-30T21:05:27.035Z,2.50
2022-07-30T21:07:56.422Z,2.40
2022-07-30T21:10:28.369Z,2.70
2022-07-30T21:12:58.550Z,2.80
2022-07-30T21:15:32.759Z,2.47
2022-07-30T21:18:01.610Z,2.42
2022-07-30T21:20:29.792Z,2.95
2022-07-30T21:23:04.440Z,2.58
2022-07-30T21:25:33.407Z,2.65
2022-07-30T21:28:02.824Z,2.50
2022-07-30T21:30:32.885Z,3.22
2022-07-30T21:33:00.669Z,3.30
2022-07-30T21:35:31.639Z,2.90
2022-07-30T21:38:01.333Z,2.50
2022-07-30T21:40:29.400Z,2.20
2022-07-30T21:42:57.259Z,2.28
2022-07-30T21:45:37.848Z,2.53
2022-07-30T21:48:07.408Z,2.45
2022-07-30T21:50:35.118Z,2.67
2022-07-30T21:53:04.368Z,2.50
2022-07-30T21:55:33.487Z,2.20
2022-07-30T21:58:26.216Z,2.53
2022-07-30T22:01:16.195Z,2.65
2022-07-30T22:04:03.605Z,2.80
2022-07-30T22:06:33.572Z,3.20
2022-07-30T22:09:03.427Z,2.92
2022-07-30T22:11:42.451Z,2.65
2022-07-30T22:14:12.963Z,2.13
2022-07-30T22:16:45.943Z,2.58
2022-07-30T22:19:14.607Z,2.65
2022-07-30T22:21:42.783Z,2.47
2022-07-30T22:24:28.643Z,2.30
2022-07-30T22:26:59.966Z,2.10
2022-07-30T22:29:34.186Z,2.20
2022-07-30T22:32:03.952Z,1.95
2022-07-30T22:34:32.095Z,2.35
2022-07-30T22:36:59.814Z,2.28
2022-07-30T22:39:32.431Z,2.42
2022-07-30T22:42:16.575Z,2.28
2022-07-30T22:44:45.731Z,2.30
2022-07-30T22:47:18.842Z,1.90
2022-07-30T22:49:53.168Z,2.10
2022-07-30T22:52:27.207Z,1.90
2022-07-30T22:55:04.639Z,2.17
2022-07-30T22:57:37.689Z,2.45
2022-07-30T23:00:11.970Z,2.53
2022-07-30T23:02:39.986Z,1.88
2022-07-30T23:05:08.941Z,2.20
2022-07-30T23:07:39.618Z,2.60
2022-07-30T23:10:17.703Z,2.10
2022-07-30T23:12:15.733Z,4.35
2022-07-30T23:12:48.324Z,2.47
2022-07-30T23:15:16.367Z,2.72
2022-07-30T23:17:44.417Z,2.70
2022-07-30T23:20:14.869Z,2.50
2022-07-30T23:22:42.964Z,2.38
2022-07-30T23:25:12.841Z,2.50
2022-07-30T23:27:41.156Z,2.50
2022-07-30T23:30:11.080Z,2.40
2022-07-30T23:32:39.830Z,2.63
2022-07-30T23:35:09.364Z,2.30
2022-07-30T23:37:48.425Z,2.83
2022-07-30T23:40:18.879Z,2.70
2022-07-30T23:42:47.155Z,2.85
2022-07-30T23:45:14.918Z,2.45
2022-07-30T23:47:56.563Z,2.00
2022-07-30T23:50:30.548Z,2.30
2022-07-30T23:52:58.326Z,2.40
2022-07-30T23:55:28.039Z,2.60
2022-07-30T23:57:55.950Z,1.90
